Archival Weather

Tokyo Intl

Tokyo Intl, Japan (RJTT)

Report from: Friday, June 24, 2022 7:00 PM JST
Current time: Tuesday, August 16, 2022 10:50 AM JST

Current weather
Weather history
Weather forecast

Temperature28.0°C (82.4°F)
Heat index31.4°C (88.5°F)
Dew point23.0°C (73.4°F)
Winds 20 kts (10.3 m/s, 23 mph) South-Southwest (200°)
Wind gusts 32 kts (16.5 m/s, 36.8 mph)
Visibility6.2 mi. (10 km)
Clouds Ceiling: Broken clouds 0 ft. (0 m)
Few clouds 2,000 ft. (610 m)
Altimeter29.62 in.Hg (1003 mB)
Relative humidity74 %
Density altitude2,219 ft. (676 m)
Flight conditions Low Instrument Meteorological Conditions
Raw dataRJTT 241000Z 20020KT 9999 FEW020 BKN/// 28/23 Q1003 TEMPO 20022G32KT RMK 1CU020 A2962
An error has occurred. This application may no longer respond until reloaded. Reload 🗙